createdAt,value
2022-11-16T00:05:10.573Z,91.65
2022-11-16T00:11:33.590Z,91.62
2022-11-16T00:17:53.584Z,91.65
2022-11-16T00:24:16.611Z,91.64
2022-11-16T00:30:36.581Z,91.7
2022-11-16T00:36:59.616Z,91.68
2022-11-16T00:43:19.615Z,91.74
2022-11-16T00:49:42.570Z,91.76
2022-11-16T00:56:02.655Z,91.83
2022-11-16T01:02:25.590Z,91.93
2022-11-16T01:08:45.596Z,92.02
2022-11-16T01:15:08.611Z,92.05
2022-11-16T01:21:28.574Z,92.1
2022-11-16T01:27:51.645Z,92.19
2022-11-16T01:34:11.601Z,92.26
2022-11-16T01:40:34.594Z,92.32
2022-11-16T01:46:54.567Z,92.35
2022-11-16T01:53:17.620Z,92.39
2022-11-16T01:59:37.558Z,92.5
2022-11-16T02:06:00.583Z,92.59
2022-11-16T02:12:20.598Z,92.55
2022-11-16T02:18:43.587Z,92.52
2022-11-16T02:25:03.581Z,92.34
2022-11-16T02:31:26.614Z,92
2022-11-16T02:37:46.574Z,91.68
2022-11-16T02:44:09.575Z,91.51
2022-11-16T02:50:29.640Z,91.54
2022-11-16T02:56:52.575Z,91.69
2022-11-16T03:03:12.608Z,91.88
2022-11-16T03:09:35.622Z,92.04
2022-11-16T03:15:55.630Z,92.1
2022-11-16T03:22:18.581Z,92.06
2022-11-16T03:28:38.600Z,91.96
2022-11-16T03:35:01.588Z,92.08
2022-11-16T03:41:21.589Z,91.96
2022-11-16T03:47:44.614Z,92.07
2022-11-16T03:54:04.637Z,92.14
2022-11-16T04:00:27.592Z,92.21
2022-11-16T04:06:47.638Z,92.23
2022-11-16T04:13:10.586Z,92.24
2022-11-16T04:19:30.607Z,92.29
2022-11-16T04:36:08.100Z,92.24
2022-11-16T04:42:27.568Z,92.1
2022-11-16T04:48:50.600Z,92.16
2022-11-16T04:55:10.588Z,92.18
2022-11-16T05:01:33.617Z,92.13
2022-11-16T05:07:53.566Z,92.19
2022-11-16T05:14:16.608Z,92.19
2022-11-16T05:20:36.596Z,92.07
2022-11-16T05:26:59.565Z,92.1
2022-11-16T05:33:19.632Z,91.88
2022-11-16T05:39:42.653Z,92.2
2022-11-16T05:46:02.569Z,92
2022-11-16T05:52:25.617Z,91.55
2022-11-16T05:58:45.582Z,91.1
2022-11-16T06:05:08.633Z,90.42
2022-11-16T06:11:32.796Z,90.32
2022-11-16T06:17:51.864Z,90.6
2022-11-16T06:24:11.579Z,90.2
2022-11-16T06:30:34.652Z,90.99
2022-11-16T06:36:54.841Z,91.03
2022-11-16T06:43:17.564Z,90.97
2022-11-16T06:49:37.557Z,89.85
2022-11-16T06:56:00.708Z,88.83
2022-11-16T07:02:20.557Z,88.26
2022-11-16T07:08:43.641Z,87.46
2022-11-16T07:15:03.876Z,85.81
2022-11-16T07:21:26.577Z,85.42
2022-11-16T07:27:46.610Z,84.72
2022-11-16T07:34:09.679Z,84.33
2022-11-16T07:40:29.593Z,83.35
2022-11-16T07:46:52.591Z,83.23
2022-11-16T07:53:12.709Z,84.31
2022-11-16T07:59:35.643Z,85.76
2022-11-16T08:05:55.625Z,86.52
2022-11-16T08:12:18.613Z,86.83
2022-11-16T08:18:38.609Z,87.2
2022-11-16T08:25:01.600Z,86.68
2022-11-16T08:31:21.706Z,86.9
2022-11-16T08:37:44.586Z,85.31
2022-11-16T08:44:04.567Z,82.98
2022-11-16T08:50:27.714Z,81.33
2022-11-16T08:56:47.598Z,81.56
2022-11-16T09:03:10.595Z,81.65
2022-11-16T09:09:30.745Z,79.94
2022-11-16T09:15:53.571Z,79.56
2022-11-16T09:22:13.637Z,78.01
2022-11-16T09:28:36.835Z,75.75
2022-11-16T09:44:43.685Z,74.91
2022-11-16T09:51:03.576Z,72.58
2022-11-16T09:57:26.631Z,70.76
2022-11-16T10:03:46.721Z,71.07
2022-11-16T10:10:09.593Z,73.18
2022-11-16T10:16:29.595Z,71.44
2022-11-16T10:22:52.772Z,70.24
2022-11-16T10:29:12.610Z,72.05
2022-11-16T10:35:35.595Z,68.99
2022-11-16T10:41:55.704Z,67.93
2022-11-16T10:48:18.597Z,67.56
2022-11-16T10:54:42.936Z,65.69
2022-11-16T11:01:01.646Z,66.08
2022-11-16T11:07:21.679Z,66.72
2022-11-16T11:13:44.600Z,65.83
2022-11-16T11:20:04.773Z,65.81
2022-11-16T11:26:30.509Z,66.21
2022-11-16T11:32:47.596Z,65.65
2022-11-16T11:39:10.770Z,65.88
2022-11-16T11:45:30.589Z,62.4
2022-11-16T11:51:53.590Z,63.2
2022-11-16T11:58:13.705Z,62.72
2022-11-16T12:04:36.608Z,61.05
2022-11-16T12:10:56.582Z,58.87
2022-11-16T12:17:19.684Z,58.07
2022-11-16T12:23:39.606Z,57.23
2022-11-16T12:30:02.579Z,57.12
2022-11-16T12:36:22.634Z,56.48
2022-11-16T12:42:45.576Z,59.56
2022-11-16T12:49:05.579Z,58.99
2022-11-16T12:55:28.775Z,57.69
2022-11-16T13:01:48.583Z,59.26
2022-11-16T13:08:11.731Z,60.52
2022-11-16T13:14:31.692Z,61.72
2022-11-16T13:20:54.598Z,59.7
2022-11-16T13:27:14.589Z,59.47
2022-11-16T13:33:37.718Z,60.69
2022-11-16T13:39:57.600Z,61.81
2022-11-16T13:46:48.520Z,63.02
2022-11-16T13:53:19.822Z,62.54
2022-11-16T13:59:03.588Z,63.86
2022-11-16T14:05:23.572Z,65.77
2022-11-16T14:11:46.862Z,66.97
2022-11-16T14:18:06.587Z,68.32
2022-11-16T14:24:29.650Z,69.55
2022-11-16T14:30:49.730Z,69.71
2022-11-16T14:37:12.604Z,68.72
2022-11-16T14:43:32.893Z,69.24
2022-11-16T14:49:55.613Z,69.71
2022-11-16T15:12:43.198Z,70.86
2022-11-16T15:19:02.570Z,71.27
2022-11-16T15:25:25.579Z,72.37
2022-11-16T15:31:45.688Z,73.55
2022-11-16T15:38:09.788Z,73.2
2022-11-16T15:44:29.609Z,74.28
2022-11-16T15:50:52.715Z,74.25
2022-11-16T15:57:12.796Z,74.78
2022-11-16T16:03:36.219Z,74.91
2022-11-16T16:09:55.705Z,74.9
2022-11-16T16:16:18.623Z,75.75
2022-11-16T16:22:38.587Z,77.42
2022-11-16T16:29:01.598Z,78.05
2022-11-16T16:35:21.563Z,79.01
2022-11-16T16:41:44.660Z,79.29
2022-11-16T16:48:04.603Z,79.45
2022-11-16T16:54:27.586Z,79.67
2022-11-16T17:00:47.661Z,80.25
2022-11-16T17:07:10.742Z,80.22
2022-11-16T17:13:30.634Z,80.71
2022-11-16T17:19:53.823Z,81.04
2022-11-16T17:26:13.630Z,81.06
2022-11-16T17:32:36.554Z,81.24
2022-11-16T17:38:56.592Z,81.3
2022-11-16T17:45:19.720Z,81.51
2022-11-16T17:51:39.588Z,81.83
2022-11-16T17:58:02.666Z,82.1
2022-11-16T18:04:22.691Z,82.29
2022-11-16T18:10:45.602Z,82.51
2022-11-16T18:17:05.615Z,83.24
2022-11-16T18:23:28.889Z,83.39
2022-11-16T18:29:48.651Z,83.34
2022-11-16T18:36:11.582Z,83.41
2022-11-16T18:42:31.726Z,83.74
2022-11-16T18:48:54.576Z,83.59
2022-11-16T18:55:14.599Z,84.04
2022-11-16T19:01:37.702Z,84.38
2022-11-16T19:07:57.594Z,84.06
2022-11-16T19:14:20.634Z,83.71
2022-11-16T19:20:40.721Z,83.64
2022-11-16T19:27:03.723Z,83.64
2022-11-16T19:33:23.550Z,83.89
2022-11-16T19:39:46.719Z,84.11
2022-11-16T19:46:06.606Z,84.61
2022-11-16T19:52:29.606Z,84.46
2022-11-16T20:16:11.444Z,83.88
2022-11-16T20:22:31.586Z,83.93
2022-11-16T20:28:54.588Z,83.95
2022-11-16T20:35:18.888Z,84.06
2022-11-16T20:41:37.586Z,83.75
2022-11-16T20:47:57.605Z,83.87
2022-11-16T20:54:20.710Z,83.5
2022-11-16T21:00:40.573Z,83.93
2022-11-16T21:07:03.615Z,83.77
2022-11-16T21:13:23.701Z,84.12
2022-11-16T21:20:05.636Z,84.05
2022-11-16T21:26:06.615Z,84.05
2022-11-16T21:32:29.690Z,83.69
2022-11-16T21:38:49.558Z,83.72
2022-11-16T21:45:12.593Z,83.62
2022-11-16T21:51:32.719Z,83.56
2022-11-16T21:57:55.641Z,83.7
2022-11-16T22:04:15.658Z,83.72
2022-11-16T22:10:38.673Z,83.39
2022-11-16T22:16:58.609Z,83.33
2022-11-16T22:23:22.967Z,83.54
2022-11-16T22:29:41.612Z,83.77
2022-11-16T22:36:04.609Z,84.85
2022-11-16T22:42:24.572Z,85.77
2022-11-16T22:48:47.690Z,86.36
2022-11-16T22:55:07.571Z,86.66
2022-11-16T23:20:41.698Z,87.01
2022-11-16T23:27:01.571Z,87.16
2022-11-16T23:33:24.612Z,87.52
2022-11-16T23:39:44.608Z,87.44
2022-11-16T23:46:07.626Z,87.31
2022-11-16T23:52:27.590Z,87.33
2022-11-16T23:58:50.773Z,86.73
